ブリュッセル の空港の天気 - METARとTAF

ブリュッセル国際空港 ( EBBR / BRU ) - ベルギー ブリュッセル / Zaventem
飛行場実況気象(Metar)
観測時間04/15 06:50 CEST (04/15 04:50 UTC)
風向・風速静穏 0m/s
視程10km以上
天気現象
なし
気温0℃
湿度93%
気圧1030hPa
METAREBBR 150450Z 00000KT CAVOK M00/M01 Q1030 NOSIG
過去の天気等 Google飛行場航空写真 Wunderground天気予報

過去48時間のMETAR

飛行場予報(TAF)
発表時間: 4/15 01:10 CEST (4/14 23:10 UTC)
予報対象時間: 15日2時 CEST ~ 16日8時 CEST
風向・風速北北東 2m/s
視程10km以上
なし
TAF EBBR 142310Z 1500/1606 02003KT CAVOK